Time,TemperatureF,DewpointF,PressureIn,WindDirection,WindDirectionDegrees,WindSpeedMPH,WindSpeedGustMPH,Humidity,HourlyPrecipIn,Conditions,Clouds,dailyrainin,SoftwareType,DateUTC
2013-06-06 00:01:00,55.9,49.5,29.97,ENE,77,2.0,3.0,79,0.00,,,0.00,meteohub,2013-06-06 04:01:00,
2013-06-06 00:02:00,55.9,49.5,29.97,ENE,77,0.0,3.0,79,0.00,,,0.00,meteohub,2013-06-06 04:02:00,
2013-06-06 00:03:00,55.9,49.5,29.97,ENE,77,0.0,3.0,79,0.00,,,0.00,meteohub,2013-06-06 04:03:00,
2013-06-06 00:05:00,55.9,49.5,29.97,ENE,76,2.0,3.0,79,0.00,,,0.00,meteohub,2013-06-06 04:05:00,
2013-06-06 00:11:00,55.9,49.8,29.97,ENE,78,1.0,3.0,80,0.00,,,0.00,meteohub,2013-06-06 04:11:00,
2013-06-06 00:16:00,55.9,49.8,29.96,ENE,71,0.0,3.0,80,0.00,,,0.00,meteohub,2013-06-06 04:16:00,
2013-06-06 00:21:00,55.9,50.2,29.96,ENE,67,1.0,4.0,81,0.00,,,0.00,meteohub,2013-06-06 04:21:00,
2013-06-06 00:26:00,55.9,50.2,29.96,East,81,2.0,5.0,81,0.00,,,0.00,meteohub,2013-06-06 04:26:00,
2013-06-06 00:31:00,55.9,50.2,29.96,ENE,74,2.0,6.0,81,0.00,,,0.00,meteohub,2013-06-06 04:31:00,
2013-06-06 00:36:00,55.9,50.5,29.96,East,83,1.0,6.0,82,0.00,,,0.00,meteohub,2013-06-06 04:36:00,
2013-06-06 00:41:00,55.9,50.5,29.96,East,88,2.0,6.0,82,0.00,,,0.00,meteohub,2013-06-06 04:41:00,
2013-06-06 00:47:00,55.9,50.5,29.96,East,88,0.0,4.0,82,0.00,,,0.00,meteohub,2013-06-06 04:47:00,
2013-06-06 00:52:00,55.8,50.4,29.96,East,88,0.0,4.0,82,0.00,,,0.00,meteohub,2013-06-06 04:52:00,
2013-06-06 00:57:00,55.8,50.7,29.96,East,88,0.0,3.0,83,0.00,,,0.00,meteohub,2013-06-06 04:57:00,
2013-06-06 01:02:00,55.8,50.7,29.96,East,88,0.0,2.0,83,0.00,,,0.00,meteohub,2013-06-06 05:02:00,
2013-06-06 01:07:00,55.8,50.7,29.96,South,176,0.0,2.0,83,0.00,,,0.00,meteohub,2013-06-06 05:07:00,
2013-06-06 01:12:00,55.8,50.7,29.95,South,172,2.0,4.0,83,0.00,,,0.00,meteohub,2013-06-06 05:12:00,
2013-06-06 01:17:00,55.8,51.1,29.95,South,172,0.0,4.0,84,0.00,,,0.00,meteohub,2013-06-06 05:17:00,
2013-06-06 01:22:00,55.8,51.1,29.94,East,82,0.0,4.0,84,0.00,,,0.00,meteohub,2013-06-06 05:22:00,
2013-06-06 01:27:00,55.8,51.1,29.94,East,82,0.0,3.0,84,0.00,,,0.00,meteohub,2013-06-06 05:27:00,
2013-06-06 01:32:00,55.6,50.9,29.94,East,82,2.0,3.0,84,0.00,,,0.00,meteohub,2013-06-06 05:32:00,
2013-06-06 01:37:00,55.6,50.9,29.94,East,82,0.0,3.0,84,0.00,,,0.00,meteohub,2013-06-06 05:37:00,
2013-06-06 01:42:00,55.4,50.7,29.94,East,81,1.0,5.0,84,0.00,,,0.00,meteohub,2013-06-06 05:42:00,
2013-06-06 01:47:00,55.2,50.5,29.94,SE,134,0.0,5.0,84,0.00,,,0.00,meteohub,2013-06-06 05:47:00,
2013-06-06 01:52:00,55.2,50.7,29.93,SE,132,0.0,5.0,85,0.00,,,0.00,meteohub,2013-06-06 05:52:00,
2013-06-06 01:57:00,55.0,50.5,29.93,ESE,107,1.0,3.0,85,0.00,,,0.00,meteohub,2013-06-06 05:57:00,
2013-06-06 02:03:00,55.0,50.5,29.93,SE,130,0.0,4.0,85,0.00,,,0.00,meteohub,2013-06-06 06:03:00,
2013-06-06 02:08:00,54.9,50.7,29.93,East,88,0.0,4.0,86,0.00,,,0.00,meteohub,2013-06-06 06:08:00,
2013-06-06 02:13:00,54.9,50.7,29.93,East,88,0.0,4.0,86,0.00,,,0.00,meteohub,2013-06-06 06:13:00,
2013-06-06 02:18:00,54.9,50.7,29.93,ESE,123,1.0,3.0,86,0.00,,,0.00,meteohub,2013-06-06 06:18:00,
2013-06-06 02:23:00,54.9,50.7,29.94,ENE,65,0.0,3.0,86,0.00,,,0.00,meteohub,2013-06-06 06:23:00,
2013-06-06 02:29:00,54.9,51.1,29.94,ENE,65,0.0,3.0,87,0.00,,,0.00,meteohub,2013-06-06 06:29:00,
2013-06-06 02:34:00,54.9,51.1,29.94,ENE,65,0.0,3.0,87,0.00,,,0.00,meteohub,2013-06-06 06:34:00,
2013-06-06 02:39:00,54.9,51.1,29.94,NE,37,2.0,3.0,87,0.00,,,0.00,meteohub,2013-06-06 06:39:00,
2013-06-06 02:44:00,54.9,51.1,29.93,SE,131,0.0,2.0,87,0.00,,,0.00,meteohub,2013-06-06 06:44:00,
2013-06-06 02:49:00,54.9,51.1,29.93,ESE,116,0.0,3.0,87,0.00,,,0.00,meteohub,2013-06-06 06:49:00,
2013-06-06 02:54:00,54.9,51.1,29.93,ESE,116,0.0,3.0,87,0.00,,,0.00,meteohub,2013-06-06 06:54:00,
2013-06-06 02:59:00,54.9,51.1,29.93,ESE,116,0.0,3.0,87,0.00,,,0.00,meteohub,2013-06-06 06:59:00,
2013-06-06 03:05:00,54.7,50.9,29.93,South,169,0.0,2.0,87,0.00,,,0.00,meteohub,2013-06-06 07:05:00,
2013-06-06 03:10:00,54.7,51.3,29.93,SSE,168,0.0,3.0,88,0.00,,,0.00,meteohub,2013-06-06 07:10:00,
2013-06-06 03:15:00,54.7,51.3,29.93,SSE,168,0.0,3.0,88,0.00,,,0.00,meteohub,2013-06-06 07:15:00,
2013-06-06 03:20:00,54.7,51.3,29.93,SSE,168,0.0,3.0,88,0.00,,,0.00,meteohub,2013-06-06 07:20:00,
2013-06-06 03:25:00,54.9,51.4,29.92,SSE,168,0.0,3.0,88,0.00,,,0.00,meteohub,2013-06-06 07:25:00,
2013-06-06 03:30:00,54.9,51.4,29.92,SSE,168,0.0,2.0,88,0.00,,,0.00,meteohub,2013-06-06 07:30:00,
2013-06-06 03:35:00,55.0,51.6,29.92,SSE,168,0.0,2.0,88,0.00,,,0.00,meteohub,2013-06-06 07:35:00,
2013-06-06 03:40:00,55.0,51.6,29.92,SSE,168,0.0,2.0,88,0.00,,,0.00,meteohub,2013-06-06 07:40:00,
2013-06-06 03:46:00,55.0,51.6,29.92,SSE,168,2.0,2.0,88,0.00,,,0.00,meteohub,2013-06-06 07:46:00,
2013-06-06 03:51:00,55.0,51.6,29.92,SSE,168,2.0,3.0,88,0.00,,,0.00,meteohub,2013-06-06 07:51:00,
2013-06-06 03:56:00,55.2,51.8,29.91,SSE,168,1.0,3.0,88,0.00,,,0.00,meteohub,2013-06-06 07:56:00,
2013-06-06 04:01:00,55.2,51.8,29.91,SSE,168,2.0,3.0,88,0.00,,,0.00,meteohub,2013-06-06 08:01:00,
2013-06-06 04:07:00,55.2,51.8,29.91,SSE,168,0.0,3.0,88,0.00,,,0.00,meteohub,2013-06-06 08:07:00,
2013-06-06 04:12:00,55.2,52.0,29.91,SSE,168,0.0,3.0,89,0.00,,,0.00,meteohub,2013-06-06 08:12:00,
2013-06-06 04:17:00,55.2,52.0,29.91,SSE,168,0.0,3.0,89,0.00,,,0.00,meteohub,2013-06-06 08:17:00,
2013-06-06 04:22:00,55.2,52.3,29.91,SSE,168,1.0,2.0,90,0.00,,,0.00,meteohub,2013-06-06 08:22:00,
2013-06-06 04:27:00,55.2,52.3,29.91,SSE,168,1.0,2.0,90,0.00,,,0.00,meteohub,2013-06-06 08:27:00,
2013-06-06 04:32:00,55.0,52.5,29.90,SSE,168,0.0,3.0,91,0.01,,,0.01,meteohub,2013-06-06 08:32:00,
2013-06-06 04:37:00,55.0,52.5,29.90,SSE,168,1.0,3.0,91,0.02,,,0.02,meteohub,2013-06-06 08:37:00,
2013-06-06 04:42:00,54.9,52.5,29.90,South,170,1.0,3.0,92,0.04,,,0.04,meteohub,2013-06-06 08:42:00,
2013-06-06 04:47:00,54.9,52.9,29.90,South,170,0.0,3.0,93,0.05,,,0.05,meteohub,2013-06-06 08:47:00,
2013-06-06 04:52:00,55.0,53.4,29.90,South,170,1.0,3.0,94,0.10,,,0.10,meteohub,2013-06-06 08:52:00,
2013-06-06 04:58:00,55.4,53.8,29.89,South,170,0.0,3.0,94,0.13,,,0.13,meteohub,2013-06-06 08:58:00,
2013-06-06 05:03:00,55.8,54.3,29.90,West,259,1.0,3.0,95,0.13,,,0.13,meteohub,2013-06-06 09:03:00,
2013-06-06 05:08:00,56.1,54.7,29.89,West,259,0.0,4.0,95,0.15,,,0.15,meteohub,2013-06-06 09:08:00,
2013-06-06 05:13:00,56.8,55.8,29.89,West,259,0.0,4.0,96,0.27,,,0.27,meteohub,2013-06-06 09:13:00,
2013-06-06 05:19:00,57.6,56.5,29.89,West,259,0.0,4.0,96,0.30,,,0.30,meteohub,2013-06-06 09:19:00,
2013-06-06 05:24:00,58.5,57.6,29.89,West,259,0.0,1.0,97,0.31,,,0.31,meteohub,2013-06-06 09:24:00,
2013-06-06 05:29:00,59.2,58.3,29.89,West,259,0.0,1.0,97,0.33,,,0.32,meteohub,2013-06-06 09:29:00,
2013-06-06 05:34:00,59.7,58.8,29.89,West,259,0.0,1.0,97,0.32,,,0.33,meteohub,2013-06-06 09:34:00,
2013-06-06 05:39:00,59.9,59.0,29.89,West,259,0.0,1.0,97,0.31,,,0.34,meteohub,2013-06-06 09:39:00,
2013-06-06 05:44:00,59.7,58.6,29.89,West,259,0.0,0.0,96,0.30,,,0.35,meteohub,2013-06-06 09:44:00,
2013-06-06 05:50:00,59.4,58.3,29.89,West,259,0.0,1.0,96,0.25,,,0.37,meteohub,2013-06-06 09:50:00,
2013-06-06 05:55:00,59.4,58.3,29.88,West,259,0.0,1.0,96,0.26,,,0.39,meteohub,2013-06-06 09:55:00,
2013-06-06 06:00:00,59.5,58.5,29.88,West,259,0.0,1.0,96,0.28,,,0.42,meteohub,2013-06-06 10:00:00,
2013-06-06 06:05:00,60.1,59.2,29.88,West,259,0.0,1.0,97,0.25,,,0.42,meteohub,2013-06-06 10:05:00,
2013-06-06 06:10:00,60.3,59.4,29.88,West,259,0.0,1.0,97,0.18,,,0.46,meteohub,2013-06-06 10:10:00,
2013-06-06 06:15:00,60.4,59.5,29.88,West,259,2.0,2.0,97,0.17,,,0.47,meteohub,2013-06-06 10:15:00,
2013-06-06 06:21:00,60.4,59.5,29.88,SSE,153,2.0,4.0,97,0.17,,,0.49,meteohub,2013-06-06 10:21:00,
2013-06-06 06:26:00,60.1,59.0,29.89,South,184,1.0,4.0,96,0.17,,,0.50,meteohub,2013-06-06 10:26:00,
2013-06-06 06:31:00,59.5,58.5,29.89,South,180,2.0,4.0,96,0.16,,,0.50,meteohub,2013-06-06 10:31:00,
2013-06-06 06:36:00,59.4,58.3,29.89,SW,217,4.0,4.0,96,0.17,,,0.52,meteohub,2013-06-06 10:36:00,
2013-06-06 06:42:00,59.0,57.9,29.89,SSW,205,2.0,5.0,96,0.16,,,0.52,meteohub,2013-06-06 10:42:00,
2013-06-06 06:47:00,58.6,57.6,29.89,SSW,203,4.0,5.0,96,0.17,,,0.53,meteohub,2013-06-06 10:47:00,
2013-06-06 06:52:00,58.5,57.4,29.89,SSE,166,3.0,5.0,96,0.16,,,0.54,meteohub,2013-06-06 10:52:00,
2013-06-06 06:57:00,58.5,57.4,29.89,SSW,192,2.0,5.0,96,0.15,,,0.55,meteohub,2013-06-06 10:57:00,
2013-06-06 07:02:00,58.3,57.2,29.88,South,175,2.0,5.0,96,0.14,,,0.56,meteohub,2013-06-06 11:02:00,
2013-06-06 07:07:00,58.3,57.4,29.88,South,174,0.0,5.0,97,0.12,,,0.56,meteohub,2013-06-06 11:07:00,
2013-06-06 07:12:00,58.3,57.4,29.88,South,174,0.0,5.0,97,0.12,,,0.57,meteohub,2013-06-06 11:12:00,
2013-06-06 07:17:00,58.5,57.6,29.88,South,174,0.0,3.0,97,0.10,,,0.58,meteohub,2013-06-06 11:17:00,
2013-06-06 07:22:00,58.5,57.6,29.88,South,174,0.0,2.0,97,0.09,,,0.58,meteohub,2013-06-06 11:22:00,
2013-06-06 07:27:00,58.5,57.6,29.87,South,174,0.0,2.0,97,0.08,,,0.58,meteohub,2013-06-06 11:27:00,
2013-06-06 07:32:00,58.6,57.7,29.87,South,174,0.0,2.0,97,0.09,,,0.59,meteohub,2013-06-06 11:32:00,
2013-06-06 07:37:00,58.6,57.7,29.87,South,174,0.0,2.0,97,0.07,,,0.59,meteohub,2013-06-06 11:37:00,
2013-06-06 07:42:00,58.8,57.9,29.87,South,174,0.0,1.0,97,0.07,,,0.60,meteohub,2013-06-06 11:42:00,
2013-06-06 07:47:00,58.8,57.9,29.87,South,174,0.0,1.0,97,0.07,,,0.61,meteohub,2013-06-06 11:47:00,
2013-06-06 07:52:00,59.2,58.3,29.86,South,174,0.0,1.0,97,0.08,,,0.62,meteohub,2013-06-06 11:52:00,
2013-06-06 07:57:00,59.2,58.3,29.86,South,174,0.0,1.0,97,0.08,,,0.63,meteohub,2013-06-06 11:57:00,
2013-06-06 08:02:00,59.4,58.5,29.86,South,174,0.0,3.0,97,0.08,,,0.64,meteohub,2013-06-06 12:02:00,
2013-06-06 08:07:00,59.4,58.5,29.86,South,174,0.0,3.0,97,0.07,,,0.64,meteohub,2013-06-06 12:07:00,
2013-06-06 08:12:00,59.4,58.5,29.86,South,174,0.0,3.0,97,0.08,,,0.66,meteohub,2013-06-06 12:12:00,
2013-06-06 08:17:00,59.5,58.6,29.86,South,174,0.0,2.0,97,0.09,,,0.67,meteohub,2013-06-06 12:17:00,
2013-06-06 08:22:00,59.5,58.6,29.86,South,174,0.0,0.0,97,0.10,,,0.68,meteohub,2013-06-06 12:22:00,
2013-06-06 08:27:00,59.7,58.8,29.85,South,174,1.0,2.0,97,0.09,,,0.68,meteohub,2013-06-06 12:27:00,
2013-06-06 08:32:00,59.7,58.8,29.85,South,174,0.0,2.0,97,0.10,,,0.69,meteohub,2013-06-06 12:32:00,
2013-06-06 08:37:00,60.1,59.2,29.85,South,174,0.0,2.0,97,0.11,,,0.70,meteohub,2013-06-06 12:37:00,
2013-06-06 08:42:00,60.1,59.2,29.85,South,174,0.0,2.0,97,0.11,,,0.71,meteohub,2013-06-06 12:42:00,
2013-06-06 08:47:00,60.1,59.2,29.85,South,174,0.0,1.0,97,0.11,,,0.72,meteohub,2013-06-06 12:47:00,
2013-06-06 08:52:00,60.3,59.4,29.85,South,174,1.0,1.0,97,0.11,,,0.73,meteohub,2013-06-06 12:52:00,
2013-06-06 08:57:00,60.3,59.4,29.85,ENE,78,0.0,1.0,97,0.11,,,0.74,meteohub,2013-06-06 12:57:00,
2013-06-06 09:02:00,60.4,59.5,29.85,ENE,78,0.0,3.0,97,0.12,,,0.76,meteohub,2013-06-06 13:02:00,
2013-06-06 09:07:00,60.6,59.7,29.85,ENE,78,0.0,3.0,97,0.11,,,0.76,meteohub,2013-06-06 13:07:00,
2013-06-06 09:12:00,60.6,59.7,29.85,ENE,78,2.0,2.0,97,0.13,,,0.79,meteohub,2013-06-06 13:12:00,
2013-06-06 09:18:00,60.6,59.7,29.84,ENE,78,3.0,3.0,97,0.12,,,0.80,meteohub,2013-06-06 13:18:00,
2013-06-06 09:23:00,60.6,59.7,29.84,ENE,78,1.0,3.0,97,0.13,,,0.81,meteohub,2013-06-06 13:23:00,
2013-06-06 09:28:00,60.6,59.7,29.84,ENE,78,2.0,3.0,97,0.14,,,0.82,meteohub,2013-06-06 13:28:00,
2013-06-06 09:33:00,60.6,59.7,29.83,ENE,78,0.0,3.0,97,0.14,,,0.83,meteohub,2013-06-06 13:33:00,
2013-06-06 09:38:00,60.8,59.9,29.84,ENE,78,2.0,3.0,97,0.14,,,0.84,meteohub,2013-06-06 13:38:00,
2013-06-06 09:44:00,60.6,59.7,29.84,ENE,78,1.0,4.0,97,0.13,,,0.84,meteohub,2013-06-06 13:44:00,
2013-06-06 09:49:00,60.6,59.7,29.84,ENE,78,1.0,4.0,97,0.13,,,0.85,meteohub,2013-06-06 13:49:00,
2013-06-06 09:54:00,60.8,59.9,29.84,ENE,78,0.0,3.0,97,0.13,,,0.86,meteohub,2013-06-06 13:54:00,
2013-06-06 09:59:00,61.0,60.1,29.84,ENE,78,2.0,3.0,97,0.13,,,0.87,meteohub,2013-06-06 13:59:00,
2013-06-06 10:04:00,61.0,60.1,29.84,ENE,78,2.0,3.0,97,0.11,,,0.87,meteohub,2013-06-06 14:04:00,
2013-06-06 10:09:00,60.8,59.9,29.83,ENE,78,0.0,3.0,97,0.10,,,0.88,meteohub,2013-06-06 14:09:00,
2013-06-06 10:14:00,61.0,60.1,29.83,ENE,78,0.0,3.0,97,0.10,,,0.89,meteohub,2013-06-06 14:14:00,
2013-06-06 10:19:00,61.2,60.3,29.83,East,85,0.0,3.0,97,0.10,,,0.90,meteohub,2013-06-06 14:19:00,
2013-06-06 10:24:00,61.2,60.3,29.83,East,85,2.0,3.0,97,0.09,,,0.90,meteohub,2013-06-06 14:24:00,
2013-06-06 10:29:00,61.3,60.4,29.83,East,85,1.0,3.0,97,0.08,,,0.90,meteohub,2013-06-06 14:29:00,
2013-06-06 10:35:00,61.3,60.4,29.83,ESE,113,2.0,3.0,97,0.07,,,0.91,meteohub,2013-06-06 14:35:00,
2013-06-06 10:40:00,61.3,60.4,29.83,ENE,73,0.0,4.0,97,0.06,,,0.91,meteohub,2013-06-06 14:40:00,
2013-06-06 10:45:00,61.5,60.6,29.83,ENE,73,0.0,4.0,97,0.05,,,0.91,meteohub,2013-06-06 14:45:00,
2013-06-06 10:50:00,61.7,60.8,29.83,SE,143,0.0,4.0,97,0.04,,,0.91,meteohub,2013-06-06 14:50:00,
2013-06-06 10:56:00,61.9,61.0,29.82,ENE,76,3.0,7.0,97,0.05,,,0.92,meteohub,2013-06-06 14:56:00,
2013-06-06 11:01:00,61.9,61.0,29.83,ENE,65,0.0,7.0,97,0.04,,,0.92,meteohub,2013-06-06 15:01:00,
2013-06-06 11:07:00,61.9,61.0,29.82,East,82,1.0,7.0,97,0.03,,,0.92,meteohub,2013-06-06 15:07:00,
2013-06-06 11:12:00,61.9,61.0,29.82,ENE,72,1.0,5.0,97,0.03,,,0.92,meteohub,2013-06-06 15:12:00,
2013-06-06 11:17:00,62.1,61.2,29.82,ENE,72,1.0,5.0,97,0.02,,,0.92,meteohub,2013-06-06 15:17:00,
2013-06-06 11:22:00,62.1,61.2,29.82,ENE,73,0.0,3.0,97,0.02,,,0.92,meteohub,2013-06-06 15:22:00,
2013-06-06 11:27:00,62.1,61.2,29.82,ESE,123,0.0,3.0,97,0.02,,,0.92,meteohub,2013-06-06 15:27:00,
2013-06-06 11:32:00,61.9,61.0,29.82,East,82,2.0,3.0,97,0.02,,,0.92,meteohub,2013-06-06 15:32:00,
2013-06-06 11:37:00,62.1,61.2,29.83,SSE,158,0.0,5.0,97,0.01,,,0.92,meteohub,2013-06-06 15:37:00,
2013-06-06 11:42:00,62.1,61.2,29.83,ENE,78,0.0,5.0,97,0.01,,,0.92,meteohub,2013-06-06 15:42:00,
2013-06-06 11:47:00,62.1,61.2,29.83,SE,143,0.0,5.0,97,0.01,,,0.92,meteohub,2013-06-06 15:47:00,
2013-06-06 11:52:00,62.2,61.3,29.83,East,86,2.0,4.0,97,0.00,,,0.92,meteohub,2013-06-06 15:52:00,
2013-06-06 11:58:00,62.2,61.3,29.82,ENE,60,1.0,4.0,97,0.00,,,0.92,meteohub,2013-06-06 15:58:00,
2013-06-06 12:03:00,62.4,61.5,29.83,ENE,66,2.0,4.0,97,0.00,,,0.92,meteohub,2013-06-06 16:03:00,
2013-06-06 12:08:00,62.6,61.7,29.83,ENE,66,0.0,3.0,97,0.00,,,0.92,meteohub,2013-06-06 16:08:00,
2013-06-06 12:13:00,62.6,61.7,29.83,ENE,66,0.0,3.0,97,0.00,,,0.92,meteohub,2013-06-06 16:13:00,
2013-06-06 12:19:00,62.4,61.5,29.83,ENE,76,3.0,5.0,97,0.00,,,0.92,meteohub,2013-06-06 16:19:00,
2013-06-06 12:24:00,62.2,61.3,29.83,NE,40,2.0,5.0,97,0.00,,,0.92,meteohub,2013-06-06 16:24:00,
2013-06-06 12:29:00,62.2,61.3,29.83,NE,44,1.0,5.0,97,0.00,,,0.92,meteohub,2013-06-06 16:29:00,
2013-06-06 12:34:00,62.2,61.3,29.83,NE,45,1.0,5.0,97,0.00,,,0.92,meteohub,2013-06-06 16:34:00,
2013-06-06 12:39:00,62.1,61.2,29.83,NE,45,1.0,3.0,97,0.00,,,0.92,meteohub,2013-06-06 16:39:00,
2013-06-06 12:44:00,62.1,61.2,29.82,NE,45,0.0,3.0,97,0.00,,,0.92,meteohub,2013-06-06 16:44:00,
2013-06-06 12:50:00,62.1,61.2,29.82,NE,45,1.0,2.0,97,0.00,,,0.92,meteohub,2013-06-06 16:50:00,
2013-06-06 12:55:00,62.1,61.2,29.82,North,355,3.0,4.0,97,0.00,,,0.92,meteohub,2013-06-06 16:55:00,
2013-06-06 13:00:00,62.1,61.2,29.82,North,355,2.0,4.0,97,0.00,,,0.92,meteohub,2013-06-06 17:00:00,
2013-06-06 13:05:00,62.2,61.3,29.82,NE,44,0.0,4.0,97,0.00,,,0.92,meteohub,2013-06-06 17:05:00,
2013-06-06 13:10:00,62.2,61.3,29.82,NE,44,1.0,3.0,97,0.00,,,0.92,meteohub,2013-06-06 17:10:00,
2013-06-06 13:15:00,62.2,61.3,29.82,NE,44,4.0,4.0,97,0.00,,,0.92,meteohub,2013-06-06 17:15:00,
2013-06-06 13:20:00,62.2,61.3,29.82,NNE,23,1.0,4.0,97,0.00,,,0.92,meteohub,2013-06-06 17:20:00,
2013-06-06 13:26:00,62.4,61.5,29.82,NNE,23,0.0,4.0,97,0.00,,,0.92,meteohub,2013-06-06 17:26:00,
2013-06-06 13:31:00,62.2,61.3,29.82,North,5,0.0,4.0,97,0.00,,,0.92,meteohub,2013-06-06 17:31:00,
2013-06-06 13:36:00,62.2,61.3,29.82,NNE,13,2.0,4.0,97,0.00,,,0.92,meteohub,2013-06-06 17:36:00,
2013-06-06 13:41:00,62.2,61.3,29.82,North,355,0.0,4.0,97,0.00,,,0.92,meteohub,2013-06-06 17:41:00,
2013-06-06 13:46:00,62.1,61.2,29.82,North,355,1.0,3.0,97,0.00,,,0.92,meteohub,2013-06-06 17:46:00,
2013-06-06 13:51:00,61.7,60.8,29.82,ENE,71,2.0,4.0,97,0.00,,,0.92,meteohub,2013-06-06 17:51:00,
2013-06-06 13:57:00,61.7,60.8,29.82,NNE,26,0.0,4.0,97,0.00,,,0.92,meteohub,2013-06-06 17:57:00,
2013-06-06 14:02:00,61.9,61.0,29.82,NNE,26,2.0,4.0,97,0.00,,,0.92,meteohub,2013-06-06 18:02:00,
2013-06-06 14:07:00,61.7,60.8,29.82,NNE,15,2.0,3.0,97,0.00,,,0.92,meteohub,2013-06-06 18:07:00,
2013-06-06 14:12:00,61.5,60.6,29.82,NNE,15,2.0,4.0,97,0.01,,,0.93,meteohub,2013-06-06 18:12:00,
2013-06-06 14:17:00,61.2,60.3,29.82,ENE,58,1.0,6.0,97,0.02,,,0.94,meteohub,2013-06-06 18:17:00,
2013-06-06 14:23:00,61.0,60.1,29.82,North,355,0.0,6.0,97,0.03,,,0.95,meteohub,2013-06-06 18:23:00,
2013-06-06 14:28:00,61.0,60.1,29.81,ENE,61,4.0,6.0,97,0.04,,,0.96,meteohub,2013-06-06 18:28:00,
2013-06-06 14:33:00,60.6,59.7,29.81,NNW,347,5.0,6.0,97,0.04,,,0.96,meteohub,2013-06-06 18:33:00,
2013-06-06 14:38:00,60.1,59.2,29.81,North,0,2.0,6.0,97,0.05,,,0.97,meteohub,2013-06-06 18:38:00,
2013-06-06 14:43:00,59.7,58.8,29.82,NNW,348,3.0,7.0,97,0.06,,,0.98,meteohub,2013-06-06 18:43:00,
2013-06-06 14:48:00,59.4,58.5,29.82,NNW,347,2.0,7.0,97,0.06,,,0.98,meteohub,2013-06-06 18:48:00,
2013-06-06 14:53:00,59.2,58.3,29.81,West,261,1.0,6.0,97,0.07,,,0.99,meteohub,2013-06-06 18:53:00,
2013-06-06 14:59:00,58.8,57.9,29.82,North,5,3.0,6.0,97,0.07,,,0.99,meteohub,2013-06-06 18:59:00,
2013-06-06 15:04:00,58.1,57.0,29.83,NNE,21,3.0,9.0,96,0.07,,,0.99,meteohub,2013-06-06 19:04:00,
2013-06-06 15:09:00,57.9,56.8,29.83,NNE,21,0.0,9.0,96,0.06,,,0.99,meteohub,2013-06-06 19:09:00,
2013-06-06 15:14:00,57.6,56.5,29.84,NE,55,3.0,9.0,96,0.06,,,0.99,meteohub,2013-06-06 19:14:00,
2013-06-06 15:20:00,56.8,55.8,29.84,NE,35,3.0,6.0,96,0.03,,,0.99,meteohub,2013-06-06 19:20:00,
2013-06-06 15:25:00,56.7,55.6,29.84,ENE,64,1.0,6.0,96,0.03,,,0.99,meteohub,2013-06-06 19:25:00,
2013-06-06 15:30:00,56.7,55.8,29.83,North,5,1.0,6.0,97,0.03,,,1.00,meteohub,2013-06-06 19:30:00,
2013-06-06 15:35:00,56.7,55.8,29.83,NNW,347,2.0,5.0,97,0.02,,,1.00,meteohub,2013-06-06 19:35:00,
2013-06-06 15:36:00,56.7,55.8,29.83,NNW,347,2.0,5.0,97,0.02,,,1.00,meteohub,2013-06-06 19:36:00,
2013-06-06 15:41:00,56.8,55.9,29.83,North,355,3.0,5.0,97,0.02,,,1.00,meteohub,2013-06-06 19:41:00,
2013-06-06 15:47:00,56.8,55.9,29.83,NE,45,4.0,5.0,97,0.02,,,1.00,meteohub,2013-06-06 19:47:00,
2013-06-06 15:52:00,56.8,55.9,29.83,NE,50,2.0,7.0,97,0.01,,,1.00,meteohub,2013-06-06 19:52:00,
2013-06-06 15:57:00,56.7,55.8,29.82,North,355,3.0,7.0,97,0.01,,,1.00,meteohub,2013-06-06 19:57:00,
2013-06-06 16:02:00,56.7,55.8,29.82,NNW,346,3.0,7.0,97,0.01,,,1.00,meteohub,2013-06-06 20:02:00,
2013-06-06 16:07:00,56.7,55.8,29.81,ESE,105,2.0,7.0,97,0.01,,,1.00,meteohub,2013-06-06 20:07:00,
2013-06-06 16:12:00,56.7,55.8,29.81,NNW,333,3.0,7.0,97,0.01,,,1.00,meteohub,2013-06-06 20:12:00,
2013-06-06 16:18:00,56.3,55.4,29.81,NE,48,1.0,7.0,97,0.01,,,1.00,meteohub,2013-06-06 20:18:00,
2013-06-06 16:23:00,56.1,55.2,29.81,ENE,76,4.0,8.0,97,0.01,,,1.00,meteohub,2013-06-06 20:23:00,
2013-06-06 16:28:00,55.8,54.9,29.81,ENE,74,4.0,8.0,97,0.00,,,1.00,meteohub,2013-06-06 20:28:00,
2013-06-06 16:33:00,55.6,54.7,29.81,East,95,3.0,8.0,97,0.00,,,1.00,meteohub,2013-06-06 20:33:00,
2013-06-06 16:39:00,55.6,54.7,29.81,North,0,5.0,7.0,97,0.00,,,1.00,meteohub,2013-06-06 20:39:00,
2013-06-06 16:44:00,55.2,54.3,29.81,North,0,3.0,7.0,97,0.00,,,1.00,meteohub,2013-06-06 20:44:00,
2013-06-06 16:49:00,55.2,54.3,29.81,ENE,57,4.0,7.0,97,0.00,,,1.00,meteohub,2013-06-06 20:49:00,
2013-06-06 16:54:00,55.2,54.3,29.81,NE,56,2.0,8.0,97,0.00,,,1.00,meteohub,2013-06-06 20:54:00,
2013-06-06 16:59:00,55.2,54.3,29.81,NE,54,3.0,8.0,97,0.00,,,1.00,meteohub,2013-06-06 20:59:00,
2013-06-06 17:04:00,55.2,54.3,29.81,SE,146,2.0,8.0,97,0.00,,,1.00,meteohub,2013-06-06 21:04:00,
2013-06-06 17:09:00,55.2,54.3,29.82,East,82,0.0,7.0,97,0.00,,,1.00,meteohub,2013-06-06 21:09:00,
2013-06-06 17:15:00,55.2,54.3,29.82,NE,34,4.0,7.0,97,0.00,,,1.00,meteohub,2013-06-06 21:15:00,
2013-06-06 17:20:00,55.2,54.3,29.83,North,5,0.0,7.0,97,0.00,,,1.00,meteohub,2013-06-06 21:20:00,
2013-06-06 17:25:00,55.2,54.3,29.83,ENE,76,1.0,6.0,97,0.00,,,1.00,meteohub,2013-06-06 21:25:00,
2013-06-06 17:30:00,55.2,54.3,29.83,ENE,76,1.0,5.0,97,0.00,,,1.00,meteohub,2013-06-06 21:30:00,
2013-06-06 17:35:00,55.6,54.7,29.83,NNW,339,4.0,4.0,97,0.00,,,1.00,meteohub,2013-06-06 21:35:00,
2013-06-06 17:40:00,55.6,54.7,29.83,North,355,2.0,4.0,97,0.00,,,1.00,meteohub,2013-06-06 21:40:00,
2013-06-06 17:45:00,55.6,54.7,29.83,NNE,26,3.0,5.0,97,0.00,,,1.00,meteohub,2013-06-06 21:45:00,
2013-06-06 17:50:00,55.6,54.7,29.83,East,83,0.0,5.0,97,0.00,,,1.00,meteohub,2013-06-06 21:50:00,
2013-06-06 17:56:00,55.6,54.7,29.82,East,83,0.0,4.0,97,0.00,,,1.00,meteohub,2013-06-06 21:56:00,
2013-06-06 18:01:00,55.6,54.7,29.82,ENE,67,2.0,3.0,97,0.00,,,1.00,meteohub,2013-06-06 22:01:00,
2013-06-06 18:06:00,55.6,54.7,29.82,East,84,0.0,3.0,97,0.00,,,1.00,meteohub,2013-06-06 22:06:00,
2013-06-06 18:11:00,55.6,54.7,29.82,North,0,2.0,3.0,97,0.00,,,1.00,meteohub,2013-06-06 22:11:00,
2013-06-06 18:16:00,55.6,54.7,29.82,NNE,25,2.0,4.0,97,0.00,,,1.00,meteohub,2013-06-06 22:16:00,
2013-06-06 18:22:00,55.6,54.7,29.83,North,355,2.0,5.0,97,0.01,,,1.01,meteohub,2013-06-06 22:22:00,
2013-06-06 18:27:00,55.6,54.7,29.83,NNE,22,4.0,6.0,97,0.01,,,1.01,meteohub,2013-06-06 22:27:00,
2013-06-06 18:32:00,55.4,54.5,29.83,NNE,26,1.0,6.0,97,0.01,,,1.01,meteohub,2013-06-06 22:32:00,
2013-06-06 18:37:00,55.6,54.7,29.83,NNW,329,1.0,6.0,97,0.01,,,1.01,meteohub,2013-06-06 22:37:00,
2013-06-06 18:42:00,55.6,54.7,29.82,North,0,2.0,6.0,97,0.01,,,1.01,meteohub,2013-06-06 22:42:00,
2013-06-06 18:47:00,55.6,54.7,29.82,NE,39,4.0,4.0,97,0.01,,,1.01,meteohub,2013-06-06 22:47:00,
2013-06-06 18:52:00,55.6,54.7,29.82,NNW,330,0.0,5.0,97,0.02,,,1.02,meteohub,2013-06-06 22:52:00,
2013-06-06 18:57:00,55.6,54.7,29.82,NNW,343,4.0,5.0,97,0.02,,,1.02,meteohub,2013-06-06 22:57:00,
2013-06-06 19:02:00,55.6,54.7,29.82,NE,40,3.0,5.0,97,0.02,,,1.02,meteohub,2013-06-06 23:02:00,
2013-06-06 19:07:00,55.6,54.7,29.82,North,350,4.0,7.0,97,0.02,,,1.02,meteohub,2013-06-06 23:07:00,
2013-06-06 19:12:00,55.6,54.7,29.82,North,11,2.0,7.0,97,0.02,,,1.02,meteohub,2013-06-06 23:12:00,
2013-06-06 19:17:00,55.4,54.9,29.82,NE,51,0.0,9.0,98,0.01,,,1.02,meteohub,2013-06-06 23:17:00,
2013-06-06 19:22:00,55.2,54.7,29.82,North,5,5.0,9.0,98,0.01,,,1.02,meteohub,2013-06-06 23:22:00,
2013-06-06 19:27:00,55.2,54.7,29.83,North,351,4.0,8.0,98,0.01,,,1.02,meteohub,2013-06-06 23:27:00,
2013-06-06 19:33:00,55.2,54.7,29.83,NNW,333,4.0,9.0,98,0.01,,,1.02,meteohub,2013-06-06 23:33:00,
2013-06-06 19:38:00,55.2,54.7,29.83,North,350,4.0,9.0,98,0.01,,,1.02,meteohub,2013-06-06 23:38:00,
2013-06-06 19:43:00,55.2,54.7,29.83,NNW,343,4.0,7.0,98,0.01,,,1.02,meteohub,2013-06-06 23:43:00,
2013-06-06 19:48:00,55.2,54.7,29.83,NE,40,2.0,7.0,98,0.01,,,1.02,meteohub,2013-06-06 23:48:00,
2013-06-06 19:53:00,55.0,54.1,29.83,NNW,336,2.0,6.0,97,0.00,,,1.02,meteohub,2013-06-06 23:53:00,
2013-06-06 19:58:00,55.0,54.1,29.84,NE,47,2.0,6.0,97,0.00,,,1.02,meteohub,2013-06-06 23:58:00,
2013-06-06 20:04:00,54.9,54.0,29.84,ENE,70,3.0,5.0,97,0.00,,,1.02,meteohub,2013-06-07 00:04:00,
2013-06-06 20:09:00,54.7,54.1,29.84,North,355,2.0,4.0,98,0.00,,,0.00,meteohub,2013-06-07 00:09:00,
2013-06-06 20:14:00,54.5,53.6,29.84,North,349,2.0,5.0,97,0.00,,,0.00,meteohub,2013-06-07 00:14:00,
2013-06-06 20:19:00,54.3,53.4,29.85,East,98,2.0,6.0,97,0.00,,,0.00,meteohub,2013-06-07 00:19:00,
2013-06-06 20:24:00,54.1,53.6,29.84,SE,130,3.0,6.0,98,0.00,,,0.00,meteohub,2013-06-07 00:24:00,
2013-06-06 20:30:00,54.0,53.4,29.84,NE,47,1.0,9.0,98,0.00,,,0.00,meteohub,2013-06-07 00:30:00,
2013-06-06 20:35:00,54.0,53.1,29.85,ENE,71,3.0,9.0,97,0.00,,,0.00,meteohub,2013-06-07 00:35:00,
2013-06-06 20:40:00,53.8,52.9,29.85,NNW,336,2.0,8.0,97,0.00,,,0.00,meteohub,2013-06-07 00:40:00,
2013-06-06 20:45:00,53.8,53.2,29.86,NNW,343,3.0,9.0,98,0.00,,,0.00,meteohub,2013-06-07 00:45:00,
2013-06-06 20:50:00,53.6,53.1,29.86,North,5,2.0,9.0,98,0.00,,,0.00,meteohub,2013-06-07 00:50:00,
2013-06-06 20:55:00,53.4,52.9,29.86,ENE,78,3.0,9.0,98,0.00,,,0.00,meteohub,2013-06-07 00:55:00,
2013-06-06 21:00:00,53.4,52.9,29.85,East,86,3.0,7.0,98,0.00,,,0.00,meteohub,2013-06-07 01:00:00,
2013-06-06 21:05:00,53.2,52.7,29.85,East,87,3.0,7.0,98,0.00,,,0.00,meteohub,2013-06-07 01:05:00,
2013-06-06 21:10:00,53.2,52.7,29.86,NE,40,3.0,7.0,98,0.00,,,0.00,meteohub,2013-06-07 01:10:00,
2013-06-06 21:16:00,53.2,52.7,29.85,NE,34,1.0,7.0,98,0.00,,,0.00,meteohub,2013-06-07 01:16:00,
2013-06-06 21:21:00,53.2,52.7,29.85,ENE,76,0.0,10.0,98,0.00,,,0.00,meteohub,2013-06-07 01:21:00,
2013-06-06 21:26:00,53.1,52.5,29.85,NE,55,3.0,10.0,98,0.00,,,0.00,meteohub,2013-06-07 01:26:00,
2013-06-06 21:31:00,53.1,52.5,29.85,NNE,17,3.0,10.0,98,0.00,,,0.00,meteohub,2013-06-07 01:31:00,
2013-06-06 21:36:00,53.1,52.5,29.85,NE,51,3.0,7.0,98,0.00,,,0.00,meteohub,2013-06-07 01:36:00,
2013-06-06 21:42:00,53.1,52.5,29.86,NE,46,2.0,7.0,98,0.00,,,0.00,meteohub,2013-06-07 01:42:00,
2013-06-06 21:47:00,53.1,52.5,29.86,North,355,1.0,6.0,98,0.00,,,0.00,meteohub,2013-06-07 01:47:00,
2013-06-06 21:52:00,53.1,52.5,29.86,NNE,13,1.0,7.0,98,0.00,,,0.00,meteohub,2013-06-07 01:52:00,
2013-06-06 21:57:00,53.1,52.5,29.86,SE,128,1.0,7.0,98,0.00,,,0.00,meteohub,2013-06-07 01:57:00,
2013-06-06 22:02:00,53.1,52.5,29.86,NW,319,2.0,5.0,98,0.00,,,0.00,meteohub,2013-06-07 02:02:00,
2013-06-06 22:07:00,53.1,52.5,29.87,NE,55,1.0,7.0,98,0.00,,,0.00,meteohub,2013-06-07 02:07:00,
2013-06-06 22:12:00,53.1,52.5,29.87,East,84,1.0,7.0,98,0.00,,,0.00,meteohub,2013-06-07 02:12:00,
2013-06-06 22:17:00,52.9,52.3,29.87,East,86,0.0,6.0,98,0.00,,,0.00,meteohub,2013-06-07 02:17:00,
2013-06-06 22:22:00,52.9,52.3,29.87,North,0,1.0,6.0,98,0.00,,,0.00,meteohub,2013-06-07 02:22:00,
2013-06-06 22:27:00,52.9,52.3,29.87,SSW,192,2.0,6.0,98,0.00,,,0.00,meteohub,2013-06-07 02:27:00,
2013-06-06 22:32:00,52.9,52.3,29.87,NNE,33,1.0,6.0,98,0.00,,,0.00,meteohub,2013-06-07 02:32:00,
2013-06-06 22:38:00,52.9,52.3,29.87,ENE,75,1.0,7.0,98,0.00,,,0.00,meteohub,2013-06-07 02:38:00,
2013-06-06 22:43:00,52.9,52.3,29.87,NNE,30,0.0,7.0,98,0.00,,,0.00,meteohub,2013-06-07 02:43:00,
2013-06-06 22:48:00,52.9,52.3,29.87,NNE,32,0.0,7.0,98,0.00,,,0.00,meteohub,2013-06-07 02:48:00,
2013-06-06 22:53:00,52.9,52.3,29.88,East,96,1.0,5.0,98,0.00,,,0.00,meteohub,2013-06-07 02:53:00,
2013-06-06 22:58:00,52.9,52.3,29.88,East,83,0.0,3.0,98,0.00,,,0.00,meteohub,2013-06-07 02:58:00,
2013-06-06 23:03:00,52.9,52.3,29.88,ENE,60,0.0,5.0,98,0.00,,,0.00,meteohub,2013-06-07 03:03:00,
2013-06-06 23:08:00,52.9,52.3,29.88,North,0,0.0,5.0,98,0.00,,,0.00,meteohub,2013-06-07 03:08:00,
2013-06-06 23:14:00,52.9,52.3,29.88,ENE,69,0.0,5.0,98,0.00,,,0.00,meteohub,2013-06-07 03:14:00,
2013-06-06 23:19:00,52.9,52.3,29.88,NE,46,2.0,6.0,98,0.00,,,0.00,meteohub,2013-06-07 03:19:00,
2013-06-06 23:24:00,52.9,52.3,29.87,ENE,71,1.0,6.0,98,0.00,,,0.00,meteohub,2013-06-07 03:24:00,
2013-06-06 23:29:00,52.7,52.2,29.87,North,350,1.0,4.0,98,0.00,,,0.00,meteohub,2013-06-07 03:29:00,
2013-06-06 23:35:00,52.7,52.2,29.87,NNW,331,4.0,4.0,98,0.00,,,0.00,meteohub,2013-06-07 03:35:00,
2013-06-06 23:40:00,52.7,52.2,29.87,ENE,68,3.0,5.0,98,0.00,,,0.00,meteohub,2013-06-07 03:40:00,
2013-06-06 23:45:00,52.5,52.0,29.87,East,82,1.0,5.0,98,0.00,,,0.00,meteohub,2013-06-07 03:45:00,
2013-06-06 23:50:00,52.5,52.0,29.87,NNE,26,2.0,4.0,98,0.00,,,0.00,meteohub,2013-06-07 03:50:00,
2013-06-06 23:55:00,52.5,52.0,29.86,East,88,1.0,5.0,98,0.00,,,0.00,meteohub,2013-06-07 03:55:00,